Time;durP1;ratioP1;P1;durP2;ratioP2;P2;SDS_P1;SDS_P2;PMS_P1;PMS_P2;Temp;Humidity;BMP_temperature;BMP_pressure;BME280_temperature;BME280_humidity;BME280_pressure;Samples;Min_cycle;Max_cycle;Signal;HPM_P1;HPM_P2
2022/08/08 00:00:57;;;;;;;2.30;2.20;;;21.90;28.30;;;;;;10447364;28;20221;-76
2022/08/08 00:06:15;;;;;;;2.70;2.50;;;21.80;28.20;;;;;;10442372;28;20224;-75
2022/08/08 00:11:39;;;;;;;2.80;2.60;;;21.80;28.40;;;;;;10435487;28;20780;-75
2022/08/08 00:17:08;;;;;;;2.30;2.20;;;21.60;29.00;;;;;;10446244;28;20232;-76
2022/08/08 00:22:28;;;;;;;2.70;2.50;;;21.40;28.70;;;;;;10449053;28;20249;-75
2022/08/08 00:27:35;;;;;;;2.57;2.37;;;21.30;28.30;;;;;;10444900;28;20258;-76
2022/08/08 00:32:43;;;;;;;3.20;2.90;;;21.30;28.90;;;;;;10444686;28;20225;-77
2022/08/08 00:38:12;;;;;;;2.20;2.10;;;21.20;29.30;;;;;;10443785;28;20294;-76
2022/08/08 00:44:05;;;;;;;2.10;2.00;;;21.20;29.30;;;;;;10442021;28;20701;-76
2022/08/08 00:49:35;;;;;;;2.30;2.10;;;21.10;29.10;;;;;;10417035;28;20279;-75
2022/08/08 00:55:19;;;;;;;2.30;2.10;;;21.20;29.40;;;;;;10436842;28;20324;-76
2022/08/08 01:00:51;;;;;;;2.10;2.00;;;21.20;29.10;;;;;;10437722;28;20233;-75
2022/08/08 01:06:32;;;;;;;2.40;2.30;;;21.10;29.70;;;;;;10439671;28;20225;-75
2022/08/08 01:12:16;;;;;;;2.83;2.63;;;21.10;29.40;;;;;;10442435;28;20400;-76
2022/08/08 01:18:02;;;;;;;3.13;2.77;;;21.10;29.40;;;;;;10425659;28;20213;-76
2022/08/08 01:23:55;;;;;;;3.27;2.50;;;21.00;29.20;;;;;;10388563;28;20247;-76
2022/08/08 01:29:42;;;;;;;2.93;2.73;;;20.90;29.30;;;;;;10446092;28;20303;-73
2022/08/08 01:35:52;;;;;;;2.43;2.33;;;20.70;29.60;;;;;;10433727;28;20224;-75
2022/08/08 01:41:11;;;;;;;2.87;2.67;;;20.60;29.20;;;;;;10434112;28;20263;-76
2022/08/08 01:46:40;;;;;;;2.57;2.47;;;20.50;29.80;;;;;;10441368;28;20644;-74
2022/08/08 01:52:02;;;;;;;2.50;2.30;;;20.40;30.20;;;;;;10433517;28;20222;-76
2022/08/08 01:57:32;;;;;;;2.67;2.47;;;20.40;30.00;;;;;;10435600;28;20231;-76
2022/08/08 02:03:17;;;;;;;2.70;2.60;;;20.30;30.20;;;;;;10431181;28;20221;-76
2022/08/08 02:08:52;;;;;;;2.60;2.40;;;20.30;30.10;;;;;;10433938;28;20223;-75
2022/08/08 02:14:07;;;;;;;2.53;2.10;;;20.30;30.30;;;;;;10439953;28;20227;-76
2022/08/08 02:19:16;;;;;;;2.63;2.53;;;20.30;30.20;;;;;;10435658;28;20224;-76
2022/08/08 02:24:50;;;;;;;2.47;2.30;;;20.20;30.10;;;;;;10434040;28;20224;-76
2022/08/08 02:30:05;;;;;;;2.30;2.20;;;20.20;30.30;;;;;;10442851;28;20320;-76
2022/08/08 02:35:51;;;;;;;2.57;2.40;;;20.10;30.30;;;;;;10441443;28;20935;-76
2022/08/08 02:41:35;;;;;;;2.80;2.60;;;20.00;30.10;;;;;;10432643;28;20263;-75
2022/08/08 02:47:30;;;;;;;2.77;2.57;;;20.00;30.40;;;;;;10439029;28;20239;-76
2022/08/08 02:52:50;;;;;;;2.23;2.13;;;19.90;30.70;;;;;;10439197;28;20280;-76
2022/08/08 02:58:27;;;;;;;2.60;2.40;;;19.90;30.80;;;;;;10437827;28;20228;-76
2022/08/08 03:04:08;;;;;;;2.47;2.17;;;19.80;30.40;;;;;;10435476;28;20225;-75
2022/08/08 03:10:24;;;;;;;2.67;2.47;;;19.80;30.60;;;;;;10436035;28;20233;-76
2022/08/08 03:16:18;;;;;;;2.20;2.10;;;19.70;30.00;;;;;;10430653;28;20255;-76
2022/08/08 03:21:37;;;;;;;2.60;2.40;;;19.70;30.10;;;;;;10434233;28;20225;-76
2022/08/08 03:27:18;;;;;;;2.37;2.27;;;19.60;30.00;;;;;;10424201;28;20664;-74
2022/08/08 03:38:06;;;;;;;2.83;2.63;;;19.50;30.00;;;;;;10440764;28;20217;-77
2022/08/08 03:43:30;;;;;;;2.87;2.67;;;19.40;29.90;;;;;;10442061;28;20224;-74
2022/08/08 03:48:41;;;;;;;2.90;2.70;;;19.40;30.30;;;;;;10440800;28;20250;-75
2022/08/08 03:54:05;;;;;;;2.60;2.50;;;19.20;30.00;;;;;;10433925;28;20582;-76
2022/08/08 03:59:12;;;;;;;2.90;2.70;;;19.20;30.10;;;;;;10438577;28;20227;-76
2022/08/08 04:04:25;;;;;;;3.77;3.00;;;19.10;30.40;;;;;;10420869;28;20278;-75
2022/08/08 04:09:33;;;;;;;3.20;2.60;;;19.00;30.20;;;;;;10437124;28;20229;-76
2022/08/08 04:14:57;;;;;;;2.83;2.63;;;18.80;30.20;;;;;;10437525;28;20705;-74
2022/08/08 04:20:01;;;;;;;2.77;2.57;;;18.80;30.70;;;;;;10435532;28;20233;-76
2022/08/08 04:25:08;;;;;;;2.57;2.37;;;18.70;30.40;;;;;;10434117;28;20232;-76
2022/08/08 04:30:20;;;;;;;2.83;2.60;;;18.70;30.70;;;;;;10446449;28;20225;-75
2022/08/08 04:35:25;;;;;;;2.67;2.47;;;18.60;30.80;;;;;;10443082;28;20237;-75
2022/08/08 04:40:31;;;;;;;2.87;2.63;;;18.60;30.70;;;;;;10443824;28;20236;-74
2022/08/08 04:45:38;;;;;;;3.40;3.17;;;18.60;30.90;;;;;;10441678;28;20222;-76
2022/08/08 04:50:43;;;;;;;2.77;2.57;;;18.60;31.80;;;;;;10444216;28;20225;-77
2022/08/08 04:55:48;;;;;;;4.23;2.73;;;18.50;31.50;;;;;;10445784;28;20217;-76
2022/08/08 05:01:00;;;;;;;3.27;3.07;;;18.40;31.70;;;;;;10446961;28;20232;-76
2022/08/08 05:06:12;;;;;;;2.97;2.77;;;18.40;32.50;;;;;;10444438;28;20245;-75
2022/08/08 05:11:28;;;;;;;2.90;2.70;;;18.50;32.20;;;;;;10444472;28;20278;-74
2022/08/08 05:16:43;;;;;;;2.90;2.70;;;18.50;32.20;;;;;;10439663;28;20225;-76
2022/08/08 05:22:03;;;;;;;3.73;3.37;;;18.60;32.90;;;;;;10441206;28;20224;-77
2022/08/08 05:27:08;;;;;;;4.87;3.53;;;18.60;32.60;;;;;;10445410;28;20213;-76
2022/08/08 05:32:13;;;;;;;3.37;3.17;;;18.70;32.90;;;;;;10443503;28;20213;-76
2022/08/08 05:37:22;;;;;;;3.60;3.17;;;18.80;33.70;;;;;;10433986;28;20695;-73
2022/08/08 05:42:44;;;;;;;3.40;3.20;;;18.80;33.60;;;;;;10442894;28;20688;-75
2022/08/08 05:47:49;;;;;;;3.50;3.30;;;18.90;33.90;;;;;;10441909;28;20705;-75
2022/08/08 05:53:02;;;;;;;3.70;3.40;;;18.90;34.20;;;;;;10442449;28;20252;-75
2022/08/08 05:58:28;;;;;;;3.90;3.60;;;19.00;33.70;;;;;;10444747;28;20227;-77
2022/08/08 06:03:40;;;;;;;3.50;3.30;;;19.10;34.70;;;;;;10441489;28;20779;-76
2022/08/08 06:08:50;;;;;;;4.10;3.10;;;19.20;34.80;;;;;;10436947;28;20233;-76
2022/08/08 06:14:05;;;;;;;3.80;3.50;;;19.30;34.50;;;;;;10436138;28;20343;-77
2022/08/08 06:19:16;;;;;;;3.43;3.13;;;19.40;34.50;;;;;;10439100;28;20225;-76
2022/08/08 06:24:20;;;;;;;3.43;3.17;;;19.50;35.00;;;;;;10441777;28;20231;-76
2022/08/08 06:29:35;;;;;;;3.60;3.40;;;19.60;34.40;;;;;;10440687;28;20716;-77
2022/08/08 06:35:03;;;;;;;3.07;2.87;;;19.70;35.00;;;;;;10436822;28;20643;-76
2022/08/08 06:40:32;;;;;;;3.83;3.53;;;19.90;35.60;;;;;;10435120;28;20233;-76
2022/08/08 06:45:39;;;;;;;3.43;3.20;;;20.10;35.60;;;;;;10435912;28;20220;-77
2022/08/08 06:50:45;;;;;;;3.20;3.00;;;20.20;34.50;;;;;;10437065;28;20474;-76
2022/08/08 06:55:54;;;;;;;3.40;3.20;;;20.40;35.30;;;;;;10438830;28;20237;-76
2022/08/08 07:01:09;;;;;;;3.23;3.03;;;20.60;34.80;;;;;;10437025;28;20934;-76
2022/08/08 07:06:37;;;;;;;3.00;2.70;;;20.80;35.00;;;;;;10430815;28;20637;-76
2022/08/08 07:11:42;;;;;;;3.10;2.50;;;21.00;35.00;;;;;;10432110;28;20221;-76
2022/08/08 07:17:03;;;;;;;2.47;2.37;;;21.10;34.70;;;;;;10433311;28;20736;-76
2022/08/08 07:22:23;;;;;;;2.20;2.10;;;21.30;34.80;;;;;;10437581;28;20220;-76
2022/08/08 07:27:32;;;;;;;2.93;2.40;;;21.50;34.50;;;;;;10438470;28;20236;-77
2022/08/08 07:32:57;;;;;;;2.13;2.03;;;21.70;34.10;;;;;;10438631;28;20221;-77
2022/08/08 07:38:06;;;;;;;1.97;1.87;;;21.90;33.20;;;;;;10437721;28;20318;-77
2022/08/08 07:43:23;;;;;;;2.00;1.90;;;22.20;33.00;;;;;;10437668;28;20319;-77
2022/08/08 07:48:39;;;;;;;2.13;2.00;;;22.50;33.00;;;;;;10436500;28;20727;-77
2022/08/08 07:53:54;;;;;;;1.80;1.70;;;22.70;32.70;;;;;;10431564;28;20513;-77
2022/08/08 07:59:13;;;;;;;2.23;1.90;;;23.00;32.20;;;;;;10442587;28;20241;-76
2022/08/08 08:04:24;;;;;;;2.03;1.80;;;23.30;32.80;;;;;;10443528;28;20233;-78
2022/08/08 08:09:36;;;;;;;2.00;1.90;;;23.50;32.10;;;;;;10443124;28;20235;-77
2022/08/08 08:14:58;;;;;;;1.80;1.70;;;23.80;31.30;;;;;;10443287;28;20323;-77
2022/08/08 08:20:09;;;;;;;2.37;1.97;;;24.10;31.40;;;;;;10446371;28;20711;-77
2022/08/08 08:25:13;;;;;;;2.13;2.00;;;24.30;31.30;;;;;;10447358;28;20610;-77
2022/08/08 08:30:38;;;;;;;2.10;1.90;;;24.60;31.00;;;;;;10447759;28;20614;-77
2022/08/08 08:35:41;;;;;;;2.37;1.90;;;24.80;30.70;;;;;;10449716;28;20235;-78
2022/08/08 08:41:07;;;;;;;2.00;1.90;;;25.00;30.50;;;;;;10449620;28;20303;-77
2022/08/08 08:46:20;;;;;;;1.87;1.67;;;25.40;29.90;;;;;;10444795;28;20713;-77
2022/08/08 08:51:29;;;;;;;1.80;1.70;;;25.60;29.80;;;;;;10441645;28;20277;-77
2022/08/08 08:56:36;;;;;;;2.80;1.77;;;25.80;29.40;;;;;;10447181;28;20247;-77
2022/08/08 09:01:45;;;;;;;1.90;1.80;;;26.10;28.70;;;;;;10438991;28;20229;-77
2022/08/08 09:06:50;;;;;;;2.00;1.90;;;26.30;28.50;;;;;;10448557;28;20236;-78
2022/08/08 09:11:56;;;;;;;2.40;1.70;;;26.50;29.10;;;;;;10447552;28;20222;-78
2022/08/08 09:17:08;;;;;;;1.80;1.70;;;26.70;28.00;;;;;;10438996;28;20275;-77
2022/08/08 09:22:21;;;;;;;1.70;1.60;;;26.90;28.10;;;;;;10449840;28;20229;-76
2022/08/08 09:27:31;;;;;;;1.83;1.70;;;27.20;27.40;;;;;;10444534;28;20236;-77
2022/08/08 09:32:55;;;;;;;1.87;1.67;;;27.50;26.60;;;;;;10455794;28;20232;-78
2022/08/08 09:38:31;;;;;;;1.70;1.60;;;27.60;26.60;;;;;;10449959;28;20225;-77
2022/08/08 09:43:49;;;;;;;1.90;1.43;;;27.80;25.60;;;;;;10445018;28;20229;-77
2022/08/08 09:49:12;;;;;;;1.60;1.50;;;27.80;24.70;;;;;;10443195;28;20232;-77
2022/08/08 09:54:43;;;;;;;2.03;1.70;;;27.90;25.60;;;;;;10442415;28;20709;-77
2022/08/08 09:59:50;;;;;;;1.70;1.60;;;28.00;24.50;;;;;;10441239;28;20236;-77
2022/08/08 10:05:16;;;;;;;1.63;1.53;;;28.00;24.40;;;;;;10441378;28;20217;-77
2022/08/08 10:10:29;;;;;;;1.67;1.50;;;28.20;24.80;;;;;;10433160;28;20232;-77
2022/08/08 10:15:38;;;;;;;1.77;1.67;;;28.30;24.70;;;;;;10443290;28;20655;-76
2022/08/08 10:20:43;;;;;;;2.97;1.60;;;28.40;23.70;;;;;;10437180;28;20217;-77
2022/08/08 10:26:03;;;;;;;2.67;1.60;;;28.50;24.00;;;;;;10439080;28;20879;-77
2022/08/08 10:36:52;;;;;;;1.50;1.50;;;28.60;23.20;;;;;;10442295;28;20255;-77
2022/08/08 10:41:57;;;;;;;1.77;1.67;;;28.70;23.80;;;;;;10435482;28;20256;-77
2022/08/08 10:47:20;;;;;;;1.80;1.70;;;28.90;23.60;;;;;;10441404;28;20228;-77
2022/08/08 10:52:26;;;;;;;1.27;1.27;;;28.90;23.10;;;;;;10439413;28;20252;-77
2022/08/08 10:57:38;;;;;;;1.60;1.50;;;28.90;23.40;;;;;;10440500;28;20236;-76
2022/08/08 11:02:58;;;;;;;1.60;1.50;;;28.90;22.50;;;;;;10429283;28;20727;-76
2022/08/08 11:08:01;;;;;;;1.70;1.60;;;29.00;21.90;;;;;;10438005;28;20229;-75
2022/08/08 11:13:24;;;;;;;1.70;1.60;;;29.00;22.80;;;;;;10439630;28;20229;-76
2022/08/08 11:18:34;;;;;;;1.90;1.80;;;29.10;22.60;;;;;;10433147;28;20233;-76
2022/08/08 11:23:42;;;;;;;1.60;1.50;;;29.20;21.60;;;;;;10431767;28;20229;-76
2022/08/08 11:28:46;;;;;;;1.70;1.60;;;29.30;21.00;;;;;;10429986;28;20223;-76
2022/08/08 11:33:57;;;;;;;1.80;1.70;;;29.40;21.70;;;;;;10432809;28;20248;-76
2022/08/08 11:39:07;;;;;;;2.10;1.43;;;29.50;20.90;;;;;;10430161;28;20224;-76
2022/08/08 11:44:15;;;;;;;1.67;1.60;;;29.60;21.70;;;;;;10435533;28;20229;-76
2022/08/08 11:49:32;;;;;;;3.43;1.70;;;29.60;21.50;;;;;;10444462;28;20236;-76
2022/08/08 11:54:35;;;;;;;1.73;1.63;;;29.70;20.90;;;;;;10436136;28;20266;-78
2022/08/08 11:59:48;;;;;;;1.87;1.77;;;29.70;20.90;;;;;;10436528;28;20248;-78
2022/08/08 12:05:07;;;;;;;2.20;2.00;;;29.70;20.90;;;;;;10439139;28;20240;-78
2022/08/08 12:10:16;;;;;;;1.60;1.50;;;29.80;20.30;;;;;;10434732;28;20270;-83
2022/08/08 12:15:28;;;;;;;1.77;1.67;;;29.80;21.00;;;;;;10437173;28;20796;-79
2022/08/08 12:20:40;;;;;;;1.70;1.60;;;29.90;20.00;;;;;;10431413;28;20997;-79
2022/08/08 12:25:43;;;;;;;1.80;1.70;;;29.90;19.80;;;;;;10439881;28;20740;-79
2022/08/08 12:31:06;;;;;;;1.80;1.70;;;30.00;20.70;;;;;;10431284;28;20227;-80
2022/08/08 12:36:13;;;;;;;1.87;1.63;;;30.00;19.40;;;;;;10435025;28;20672;-79
2022/08/08 12:41:21;;;;;;;2.20;1.60;;;30.10;19.70;;;;;;10441539;28;20730;-78
2022/08/08 12:46:55;;;;;;;1.70;1.60;;;30.10;20.20;;;;;;10454451;28;20233;-79
2022/08/08 12:52:07;;;;;;;1.97;1.77;;;30.00;19.50;;;;;;10450332;28;20266;-80
2022/08/08 12:57:30;;;;;;;2.07;1.87;;;30.10;19.80;;;;;;10438268;28;20716;-79
2022/08/08 13:02:41;;;;;;;2.40;1.60;;;30.00;20.20;;;;;;10454274;28;20783;-80
2022/08/08 13:07:56;;;;;;;2.00;1.53;;;30.10;20.30;;;;;;10444942;28;20221;-80
2022/08/08 13:13:07;;;;;;;4.37;1.70;;;30.10;19.70;;;;;;10447332;28;20296;-79
2022/08/08 13:18:10;;;;;;;1.70;1.60;;;30.20;20.00;;;;;;10455623;28;20233;-79
2022/08/08 13:23:19;;;;;;;1.80;1.70;;;30.30;19.80;;;;;;10443598;28;20236;-79
2022/08/08 13:28:42;;;;;;;1.70;1.60;;;30.30;18.70;;;;;;10450496;28;20260;-80
2022/08/08 13:33:48;;;;;;;1.70;1.60;;;30.40;19.30;;;;;;10434252;28;20221;-78
2022/08/08 13:38:54;;;;;;;1.63;1.60;;;30.40;19.00;;;;;;10439187;28;20315;-79
2022/08/08 13:44:02;;;;;;;1.43;1.43;;;30.50;18.40;;;;;;10434112;28;20229;-78
2022/08/08 13:49:16;;;;;;;1.60;1.50;;;30.60;18.40;;;;;;10439824;28;20222;-78
2022/08/08 13:54:45;;;;;;;1.73;1.63;;;30.60;17.80;;;;;;10449008;28;20228;-78
2022/08/08 14:00:03;;;;;;;1.80;1.60;;;30.60;18.50;;;;;;10446818;28;20819;-79
2022/08/08 14:05:08;;;;;;;1.80;1.70;;;30.60;18.40;;;;;;10433048;28;20225;-79
2022/08/08 14:10:26;;;;;;;1.80;1.70;;;30.50;18.30;;;;;;10447673;28;20228;-79
2022/08/08 14:15:40;;;;;;;1.53;1.53;;;30.60;18.00;;;;;;10452590;28;20228;-79
2022/08/08 14:21:02;;;;;;;1.60;1.50;;;30.70;18.10;;;;;;10447620;28;20682;-79
2022/08/08 14:26:22;;;;;;;2.27;1.80;;;30.70;17.40;;;;;;10444674;28;20244;-79
2022/08/08 14:31:30;;;;;;;1.80;1.70;;;30.80;17.20;;;;;;10441505;28;20233;-78
2022/08/08 14:36:53;;;;;;;1.60;1.50;;;30.70;17.80;;;;;;10452612;28;20221;-78
2022/08/08 14:42:02;;;;;;;1.57;1.47;;;30.70;17.60;;;;;;10433137;28;20241;-79
2022/08/08 14:47:09;;;;;;;1.63;1.53;;;30.70;17.10;;;;;;10440065;28;20800;-79
2022/08/08 14:52:23;;;;;;;1.53;1.47;;;30.70;18.00;;;;;;10450855;28;20225;-79
2022/08/08 14:57:28;;;;;;;1.80;1.70;;;30.70;17.60;;;;;;10445529;28;20243;-78
2022/08/08 15:02:54;;;;;;;1.60;1.50;;;30.70;17.00;;;;;;10438504;28;20233;-78
2022/08/08 15:08:17;;;;;;;1.60;1.50;;;30.70;17.00;;;;;;10433452;28;20669;-78
2022/08/08 15:13:39;;;;;;;2.00;1.80;;;30.80;17.30;;;;;;10445678;28;20283;-78
2022/08/08 15:19:04;;;;;;;1.67;1.57;;;30.80;16.60;;;;;;10448818;28;20232;-78
2022/08/08 15:24:08;;;;;;;2.10;2.00;;;30.80;17.00;;;;;;10430656;28;20252;-78
2022/08/08 15:29:17;;;;;;;1.83;1.73;;;30.80;17.10;;;;;;10445811;28;20278;-79
2022/08/08 15:34:25;;;;;;;2.87;1.60;;;30.90;16.70;;;;;;10445091;28;20307;-80
2022/08/08 15:39:35;;;;;;;1.80;1.70;;;30.90;16.80;;;;;;10442619;28;20221;-80
2022/08/08 15:44:43;;;;;;;2.30;1.80;;;30.90;16.70;;;;;;10445266;28;20320;-79
2022/08/08 15:49:48;;;;;;;1.77;1.67;;;30.90;16.40;;;;;;10444115;28;20229;-79
2022/08/08 15:54:51;;;;;;;1.53;1.53;;;30.90;16.50;;;;;;10445169;28;20228;-79
2022/08/08 15:59:56;;;;;;;1.87;1.73;;;30.80;16.50;;;;;;10440813;28;20312;-79
2022/08/08 16:05:20;;;;;;;1.37;1.37;;;30.80;16.30;;;;;;10443141;28;20623;-79
2022/08/08 16:10:25;;;;;;;1.80;1.70;;;30.80;16.30;;;;;;10446503;28;20903;-80
2022/08/08 16:15:50;;;;;;;1.67;1.57;;;30.70;16.20;;;;;;10446420;28;20231;-80
2022/08/08 16:21:11;;;;;;;1.73;1.60;;;30.70;16.20;;;;;;10454289;28;20687;-79
2022/08/08 16:26:31;;;;;;;1.60;1.50;;;30.70;16.20;;;;;;10449779;28;20236;-80
2022/08/08 16:31:44;;;;;;;1.80;1.70;;;30.80;16.30;;;;;;10452766;28;20233;-80
2022/08/08 16:36:51;;;;;;;2.67;2.47;;;30.90;15.50;;;;;;10451266;28;20231;-80
2022/08/08 16:41:54;;;;;;;1.83;1.73;;;30.90;15.90;;;;;;10451798;28;20279;-80
2022/08/08 16:47:19;;;;;;;1.60;1.53;;;30.90;15.70;;;;;;10446946;28;20274;-80
2022/08/08 16:52:33;;;;;;;1.73;1.63;;;30.80;15.40;;;;;;10454456;28;20322;-80
2022/08/08 16:57:57;;;;;;;1.60;1.50;;;30.80;16.00;;;;;;10455758;28;20231;-81
2022/08/08 17:03:19;;;;;;;1.70;1.60;;;30.80;16.00;;;;;;10453813;28;20231;-80
2022/08/08 17:08:27;;;;;;;1.97;1.67;;;30.70;15.70;;;;;;10447159;28;20256;-80
2022/08/08 17:13:32;;;;;;;1.50;1.40;;;30.70;15.70;;;;;;10446595;28;20598;-79
2022/08/08 17:18:56;;;;;;;1.70;1.60;;;30.70;15.80;;;;;;10451316;28;20614;-80
2022/08/08 17:24:02;;;;;;;1.80;1.63;;;30.70;15.60;;;;;;10448289;28;20237;-80
2022/08/08 17:29:24;;;;;;;1.70;1.60;;;30.70;15.80;;;;;;10449682;28;20229;-80
2022/08/08 17:34:28;;;;;;;3.40;1.50;;;30.70;15.50;;;;;;10450493;28;20287;-80
2022/08/08 17:39:52;;;;;;;1.70;1.60;;;30.70;15.10;;;;;;10450163;28;20221;-80
2022/08/08 17:45:17;;;;;;;1.60;1.50;;;30.70;15.50;;;;;;10449400;28;20592;-79
2022/08/08 17:50:27;;;;;;;1.70;1.60;;;30.70;15.40;;;;;;10451961;28;20244;-79
2022/08/08 17:55:30;;;;;;;2.30;1.50;;;30.60;15.40;;;;;;10448025;28;20233;-79
2022/08/08 18:00:53;;;;;;;1.70;1.57;;;30.50;15.80;;;;;;10449626;28;20224;-79
2022/08/08 18:06:00;;;;;;;1.67;1.50;;;30.40;16.00;;;;;;10443732;28;20780;-79
2022/08/08 18:11:10;;;;;;;1.60;1.50;;;30.20;16.00;;;;;;10448016;28;20864;-79
2022/08/08 18:16:17;;;;;;;1.63;1.53;;;30.10;16.10;;;;;;10449168;28;20298;-80
2022/08/08 18:21:28;;;;;;;2.23;1.67;;;30.00;16.40;;;;;;10449653;28;20378;-79
2022/08/08 18:26:55;;;;;;;1.57;1.47;;;29.90;16.60;;;;;;10444542;28;20229;-79
2022/08/08 18:31:59;;;;;;;3.70;3.40;;;29.70;16.70;;;;;;10444830;28;20225;-79
2022/08/08 18:37:08;;;;;;;2.90;2.70;;;29.60;16.80;;;;;;10437773;28;20732;-79
2022/08/08 18:42:19;;;;;;;3.33;2.67;;;29.50;17.20;;;;;;10441424;28;20828;-79
2022/08/08 18:47:25;;;;;;;2.07;1.97;;;29.40;17.30;;;;;;10444432;28;20248;-78
2022/08/08 18:52:32;;;;;;;2.03;1.87;;;29.30;17.60;;;;;;10430335;28;20230;-78
2022/08/08 18:57:37;;;;;;;1.90;1.70;;;29.20;17.90;;;;;;10443104;28;20239;-78
2022/08/08 19:02:44;;;;;;;1.70;1.60;;;29.10;17.90;;;;;;10444043;28;20291;-79
2022/08/08 19:07:58;;;;;;;1.90;1.80;;;29.00;18.00;;;;;;10439799;28;20244;-77
2022/08/08 19:13:01;;;;;;;1.90;1.80;;;28.80;18.30;;;;;;10434233;28;20220;-79
2022/08/08 19:18:06;;;;;;;1.70;1.60;;;28.70;18.20;;;;;;10440542;28;20229;-79
2022/08/08 19:23:31;;;;;;;1.80;1.70;;;28.60;18.50;;;;;;10437489;28;20248;-79
2022/08/08 19:28:37;;;;;;;2.40;1.67;;;28.50;18.70;;;;;;10433227;28;20228;-79
2022/08/08 19:33:43;;;;;;;1.60;1.50;;;28.30;18.70;;;;;;10432868;28;20233;-79
2022/08/08 19:39:08;;;;;;;2.30;1.90;;;28.20;18.90;;;;;;10433979;28;20224;-80
2022/08/08 19:44:12;;;;;;;1.70;1.60;;;28.00;19.20;;;;;;10435833;28;20225;-78
2022/08/08 19:49:35;;;;;;;3.43;1.80;;;27.90;19.10;;;;;;10434087;28;20232;-78
2022/08/08 19:54:41;;;;;;;1.87;1.77;;;27.70;19.70;;;;;;10440169;28;20328;-78
2022/08/08 19:59:45;;;;;;;1.93;1.67;;;27.60;19.90;;;;;;10447624;28;20221;-78
2022/08/08 20:04:51;;;;;;;1.70;1.60;;;27.40;19.80;;;;;;10436691;28;20888;-77
2022/08/08 20:09:55;;;;;;;1.80;1.70;;;27.20;19.70;;;;;;10442221;28;20281;-78
2022/08/08 20:15:00;;;;;;;1.93;1.80;;;26.90;19.90;;;;;;10440561;28;20335;-78
2022/08/08 20:20:20;;;;;;;1.90;1.80;;;26.80;19.80;;;;;;10444997;28;20308;-77
2022/08/08 20:25:25;;;;;;;2.10;1.90;;;26.60;20.10;;;;;;10442076;28;20229;-77
2022/08/08 20:30:33;;;;;;;2.10;1.90;;;26.40;20.40;;;;;;10446521;28;20284;-78
2022/08/08 20:35:57;;;;;;;1.80;1.70;;;26.20;20.50;;;;;;10445394;28;20232;-78
2022/08/08 20:41:12;;;;;;;1.83;1.73;;;26.00;20.50;;;;;;10450998;28;20224;-77
2022/08/08 20:46:21;;;;;;;3.10;1.90;;;25.80;21.10;;;;;;10449698;28;20248;-77
2022/08/08 20:51:27;;;;;;;1.80;1.70;;;25.60;20.90;;;;;;10449741;28;20240;-78
2022/08/08 20:56:36;;;;;;;1.80;1.53;;;25.40;21.20;;;;;;10405257;28;1172966;-78
2022/08/08 21:01:59;;;;;;;2.10;2.00;;;25.30;21.70;;;;;;10456617;28;20225;-78
2022/08/08 21:07:10;;;;;;;2.27;2.07;;;25.20;21.80;;;;;;10462671;28;20225;-78
2022/08/08 21:12:19;;;;;;;2.03;1.93;;;25.10;21.90;;;;;;10454888;28;20231;-78
2022/08/08 21:17:36;;;;;;;2.20;2.10;;;25.00;22.20;;;;;;10456101;28;20306;-78
2022/08/08 21:22:39;;;;;;;1.97;1.87;;;24.90;22.20;;;;;;10459971;28;20826;-78
2022/08/08 21:27:44;;;;;;;1.90;1.80;;;24.70;22.10;;;;;;10460414;28;20767;-78
2022/08/08 21:33:08;;;;;;;2.57;2.10;;;24.60;22.60;;;;;;10459543;28;20221;-78
2022/08/08 21:38:13;;;;;;;2.47;2.37;;;24.40;22.60;;;;;;10457097;28;20228;-78
2022/08/08 21:43:21;;;;;;;2.70;2.50;;;24.20;22.70;;;;;;10462460;28;20655;-78
2022/08/08 21:48:24;;;;;;;3.03;2.83;;;24.10;23.10;;;;;;10465799;28;20296;-78
2022/08/08 21:53:43;;;;;;;2.90;2.70;;;23.90;22.90;;;;;;10459980;28;20654;-78
2022/08/08 21:59:08;;;;;;;2.00;1.90;;;23.80;23.20;;;;;;10458869;28;20217;-78
2022/08/08 22:04:12;;;;;;;2.50;2.30;;;23.80;23.60;;;;;;10459159;28;20260;-78
2022/08/08 22:09:17;;;;;;;2.40;2.20;;;23.70;23.30;;;;;;10457875;28;20278;-78
2022/08/08 22:14:22;;;;;;;2.40;2.30;;;23.60;23.40;;;;;;10461473;28;20224;-78
2022/08/08 22:19:31;;;;;;;2.40;2.20;;;23.50;24.00;;;;;;10461380;28;20232;-78
2022/08/08 22:24:54;;;;;;;2.60;2.40;;;23.40;23.90;;;;;;10460408;28;20736;-78
2022/08/08 22:30:00;;;;;;;2.30;2.20;;;23.30;24.00;;;;;;10461010;28;20248;-78
2022/08/08 22:35:06;;;;;;;2.40;2.20;;;23.10;24.30;;;;;;10449603;28;20739;-78
2022/08/08 22:40:10;;;;;;;2.10;2.00;;;23.10;24.20;;;;;;10456076;28;20311;-78
2022/08/08 22:45:20;;;;;;;2.53;2.33;;;23.00;24.40;;;;;;10460264;28;20312;-78
2022/08/08 22:50:24;;;;;;;2.90;2.20;;;23.00;24.70;;;;;;10458122;28;20232;-78
2022/08/08 22:55:30;;;;;;;2.23;2.13;;;23.00;24.60;;;;;;10454570;28;20808;-78
2022/08/08 23:00:56;;;;;;;2.60;2.50;;;22.90;24.70;;;;;;10457240;28;20228;-79
2022/08/08 23:06:02;;;;;;;3.33;2.10;;;22.80;24.80;;;;;;10453840;28;20228;-78
2022/08/08 23:11:06;;;;;;;1.93;1.83;;;22.70;24.40;;;;;;10450967;28;20263;-78
2022/08/08 23:16:16;;;;;;;2.20;2.10;;;22.50;24.50;;;;;;10458053;28;20239;-78
2022/08/08 23:21:40;;;;;;;2.73;2.53;;;22.30;25.10;;;;;;10452657;28;20232;-78
2022/08/08 23:26:43;;;;;;;2.50;2.37;;;22.30;25.00;;;;;;10452830;28;20239;-78
2022/08/08 23:32:00;;;;;;;2.47;2.33;;;22.20;25.10;;;;;;10453660;28;20309;-78
2022/08/08 23:37:06;;;;;;;2.10;2.00;;;22.10;25.60;;;;;;10446691;28;20221;-78
2022/08/08 23:42:13;;;;;;;2.40;2.30;;;22.00;25.30;;;;;;10453997;28;20229;-78
2022/08/08 23:47:21;;;;;;;2.50;2.30;;;22.00;25.40;;;;;;10447810;28;20228;-78
2022/08/08 23:52:44;;;;;;;2.43;2.33;;;21.90;25.90;;;;;;10449088;28;20732;-78
2022/08/08 23:57:49;;;;;;;2.30;2.20;;;21.80;25.50;;;;;;10445637;28;20242;-78
